Time;durP1;ratioP1;P1;durP2;ratioP2;P2;SDS_P1;SDS_P2;PMS_P1;PMS_P2;Temp;Humidity;BMP_temperature;BMP_pressure;BME280_temperature;BME280_humidity;BME280_pressure;Samples;Min_cycle;Max_cycle;Signal;HPM_P1;HPM_P2
2022/06/04 00:01:25;;;;;;;;;29.00;27.67;;;;;19.44;72.05;101116.78;5077605;28;45363;-58
2022/06/04 00:03:50;;;;;;;;;28.00;23.67;;;;;19.43;71.71;101125.09;5077916;27;45209;-58
2022/06/04 00:06:15;;;;;;;;;28.00;27.00;;;;;19.41;71.91;101122.56;5078113;27;45272;-57
2022/06/04 00:08:41;;;;;;;;;25.00;23.00;;;;;19.40;71.89;101120.91;5077750;28;45418;-58
2022/06/04 00:16:34;;;;;;;;;30.33;26.67;;;;;19.38;72.09;101116.72;5077590;27;45220;-57
2022/06/04 00:18:59;;;;;;;;;28.33;27.00;;;;;19.23;71.83;101097.09;5077642;28;45999;-56
2022/06/04 00:21:25;;;;;;;;;27.33;25.00;;;;;19.35;71.84;101122.53;5077631;27;45376;-59
2022/06/04 00:23:51;;;;;;;;;23.67;21.00;;;;;19.34;71.69;101112.75;5077551;27;45423;-56
2022/06/04 00:26:18;;;;;;;;;26.33;23.00;;;;;19.34;72.03;101118.13;5077747;28;45356;-59
2022/06/04 00:28:46;;;;;;;;;23.67;22.00;;;;;19.33;71.82;101127.25;5077627;28;46844;-58
2022/06/04 00:31:13;;;;;;;;;24.33;24.00;;;;;19.30;71.79;101120.41;5077599;27;45333;-57
2022/06/04 00:33:39;;;;;;;;;26.33;21.33;;;;;19.31;71.99;101113.16;5077873;28;45324;-56
2022/06/04 00:36:05;;;;;;;;;23.67;22.33;;;;;19.17;72.02;101099.56;5077409;27;45431;-58
2022/06/04 00:38:33;;;;;;;;;22.67;19.00;;;;;19.25;72.01;101117.44;5077369;28;46260;-59
2022/06/04 00:41:20;;;;;;;;;23.33;23.00;;;;;19.25;71.94;101117.44;5077289;27;45442;-57
2022/06/04 00:43:57;;;;;;;;;23.67;23.00;;;;;19.25;71.84;101116.59;5077292;27;45384;-57
2022/06/04 00:46:40;;;;;;;;;23.00;22.00;;;;;19.25;71.54;101105.81;5077252;28;45274;-56
2022/06/04 00:49:11;;;;;;;;;25.33;22.33;;;;;19.24;71.77;101106.84;5077068;28;46360;-57
2022/06/04 00:51:38;;;;;;;;;27.67;22.33;;;;;19.24;71.85;101109.56;5075601;28;45340;-57
2022/06/04 00:54:05;;;;;;;;;26.67;23.67;;;;;19.11;71.74;101086.84;5077210;27;45223;-59
2022/06/04 00:56:49;;;;;;;;;31.67;26.33;;;;;19.22;71.66;101100.84;5077369;27;45502;-59
2022/06/04 00:59:26;;;;;;;;;26.33;26.00;;;;;19.20;71.77;101096.44;5077053;27;46966;-56
2022/06/04 01:02:03;;;;;;;;;22.33;22.00;;;;;19.18;72.03;101095.00;5077239;27;45362;-58
2022/06/04 01:04:49;;;;;;;;;29.00;22.67;;;;;19.16;71.35;101091.66;5077269;28;45388;-58
2022/06/04 01:07:53;;;;;;;;;31.67;24.33;;;;;19.13;71.04;101086.63;5077407;28;45396;-56
2022/06/04 01:10:38;;;;;;;;;25.67;24.33;;;;;19.07;71.00;101080.16;5076728;28;46393;-57
2022/06/04 01:13:13;;;;;;;;;25.33;22.67;;;;;19.03;71.11;101069.97;5077155;28;45395;-59
2022/06/04 01:15:51;;;;;;;;;25.00;22.67;;;;;19.04;71.34;101075.16;5077189;28;45384;-57
2022/06/04 01:18:25;;;;;;;;;26.67;24.33;;;;;19.06;71.58;101081.19;5076972;28;45423;-59
2022/06/04 01:21:14;;;;;;;;;28.33;25.33;;;;;19.04;71.61;101077.84;5076583;28;46138;-55
2022/06/04 01:23:49;;;;;;;;;29.00;23.00;;;;;19.02;71.21;101073.69;5076562;28;45236;-56
2022/06/04 01:26:36;;;;;;;;;26.00;23.33;;;;;19.01;71.64;101072.03;5058410;28;45333;-58
2022/06/04 01:29:14;;;;;;;;;26.33;25.67;;;;;18.90;71.37;101055.34;5076792;28;45437;-58
2022/06/04 01:31:48;;;;;;;;;28.00;23.33;;;;;18.98;71.70;101054.38;5076529;28;45428;-59
2022/06/04 01:34:22;;;;;;;;;27.00;25.67;;;;;18.94;71.00;101050.41;5076526;28;45411;-57
2022/06/04 01:36:55;;;;;;;;;23.00;21.33;;;;;18.92;71.11;101052.47;5076801;27;45351;-56
2022/06/04 01:39:24;;;;;;;;;27.33;24.00;;;;;18.92;71.80;101055.16;5076915;28;45434;-57
2022/06/04 01:41:53;;;;;;;;;24.33;22.33;;;;;18.90;71.67;101049.94;5076317;27;45642;-56
2022/06/04 01:44:25;;;;;;;;;2.00;1.67;;;;;18.80;71.31;101037.84;5076186;27;45471;-58
2022/06/04 01:46:55;;;;;;;;;26.33;24.00;;;;;18.86;71.56;101053.22;5076555;28;45360;-58
2022/06/04 01:49:31;;;;;;;;;28.33;22.00;;;;;18.86;71.63;101048.66;5076721;27;45478;-57
2022/06/04 01:52:03;;;;;;;;;28.67;24.00;;;;;18.87;71.79;101049.50;5076166;28;46039;-57
2022/06/04 01:54:43;;;;;;;;;23.33;23.33;;;;;18.85;71.86;101057.78;5076184;28;45450;-56
2022/06/04 01:57:20;;;;;;;;;23.67;19.67;;;;;18.82;72.01;101050.06;5076328;27;45307;-56
2022/06/04 01:59:51;;;;;;;;;27.00;24.00;;;;;18.82;72.34;101041.16;5076693;28;45369;-56
2022/06/04 02:02:23;;;;;;;;;27.67;25.67;;;;;18.85;71.67;101038.09;5078125;28;47065;-56
2022/06/04 02:04:53;;;;;;;;;29.00;23.00;;;;;18.81;71.82;101037.63;5079718;28;45182;-56
2022/06/04 02:07:31;;;;;;;;;23.33;20.67;;;;;18.81;71.70;101034.09;5079888;27;45540;-56
2022/06/04 02:10:22;;;;;;;;;28.33;25.00;;;;;18.80;71.72;101044.06;5080108;28;45538;-55
2022/06/04 02:12:51;;;;;;;;;25.33;24.67;;;;;18.81;72.17;101039.50;5079811;28;45533;-59
2022/06/04 02:15:22;;;;;;;;;25.00;23.00;;;;;18.77;72.07;101035.53;5079633;28;45362;-56
2022/06/04 02:17:57;;;;;;;;;27.67;25.33;;;;;18.80;72.41;101045.94;5079460;27;45497;-56
2022/06/04 02:20:23;;;;;;;;;28.00;24.33;;;;;18.80;72.63;101048.63;5079841;27;45325;-59
2022/06/04 02:22:49;;;;;;;;;28.67;24.00;;;;;18.79;72.76;101049.63;5079509;28;46217;-55
2022/06/04 02:25:15;;;;;;;;;27.67;26.00;;;;;18.79;72.55;101042.38;5079359;27;45356;-56
2022/06/04 02:27:43;;;;;;;;;28.00;25.67;;;;;18.65;72.66;101027.09;5061347;28;45379;-57
2022/06/04 02:30:11;;;;;;;;;25.67;23.00;;;;;18.76;72.61;101041.94;5079610;28;45558;-56
2022/06/04 02:33:01;;;;;;;;;27.33;23.33;;;;;18.74;72.33;101036.72;5079157;27;45864;-57
2022/06/04 02:35:56;;;;;;;;;29.00;24.67;;;;;18.73;72.55;101047.72;5061036;28;45214;-56
2022/06/04 02:38:59;;;;;;;;;30.67;20.33;;;;;18.75;72.30;101042.94;5079480;27;45222;-56
2022/06/04 02:41:31;;;;;;;;;24.00;22.67;;;;;18.73;72.53;101031.53;5079343;28;45299;-57
2022/06/04 02:44:15;;;;;;;;;18.67;18.67;;;;;18.76;72.78;101031.16;5079048;27;46451;-58
2022/06/04 02:46:49;;;;;;;;;32.00;23.33;;;;;18.77;72.83;101032.81;5079192;27;45355;-57
2022/06/04 02:49:23;;;;;;;;;24.67;21.00;;;;;18.76;72.58;101028.47;5079303;27;45318;-56
2022/06/04 02:51:53;;;;;;;;;24.00;24.00;;;;;18.79;72.70;101034.28;5079457;27;45214;-57
2022/06/04 02:54:31;;;;;;;;;21.00;19.33;;;;;18.81;72.27;101031.41;5078971;27;46044;-56
2022/06/04 02:56:59;;;;;;;;;23.00;23.00;;;;;18.80;72.56;101027.88;5078808;27;45260;-57
2022/06/04 02:59:27;;;;;;;;;23.67;22.00;;;;;18.81;72.43;101028.72;5079309;28;45316;-57
2022/06/04 03:01:58;;;;;;;;;23.00;20.00;;;;;18.80;72.79;101016.28;5079048;28;45335;-56
2022/06/04 03:04:24;;;;;;;;;22.00;20.33;;;;;18.80;72.66;101029.75;5060294;28;46741;-57
2022/06/04 03:06:49;;;;;;;;;21.00;17.67;;;;;18.78;72.60;101021.00;5060596;28;45264;-57
2022/06/04 03:09:17;;;;;;;;;31.67;22.67;;;;;18.77;72.53;101030.13;5078992;27;45433;-55
2022/06/04 03:11:45;;;;;;;;;27.00;22.00;;;;;18.75;72.53;101038.41;5079079;27;45528;-58
2022/06/04 03:14:12;;;;;;;;;21.67;21.67;;;;;18.75;72.73;101029.47;5077552;28;46224;-58
2022/06/04 03:16:39;;;;;;;;;23.67;21.00;;;;;18.65;72.90;101006.34;5078586;27;45318;-58
2022/06/04 03:19:09;;;;;;;;;26.00;22.33;;;;;18.73;72.72;101026.97;5078828;28;45348;-56
2022/06/04 03:21:36;;;;;;;;;22.67;21.00;;;;;18.73;72.51;101024.28;5078899;28;45382;-56
2022/06/04 03:24:03;;;;;;;;;27.33;25.00;;;;;18.74;72.57;101015.16;5078283;27;46206;-55
2022/06/04 03:26:28;;;;;;;;;23.00;22.00;;;;;18.68;72.35;101010.53;5078681;28;45287;-55
2022/06/04 03:28:54;;;;;;;;;25.33;22.33;;;;;18.76;72.35;101009.59;5078555;28;45278;-56
2022/06/04 03:31:19;;;;;;;;;20.33;19.33;;;;;18.75;72.54;101002.53;5078911;28;45553;-56
2022/06/04 03:33:45;;;;;;;;;23.67;22.00;;;;;18.73;71.97;101001.91;5078612;28;45302;-57
2022/06/04 03:36:10;;;;;;;;;29.67;20.67;;;;;18.76;72.02;101009.59;5078200;27;45171;-56
2022/06/04 03:38:36;;;;;;;;;24.00;22.33;;;;;18.75;72.06;101014.16;5078676;28;45223;-56
2022/06/04 03:41:01;;;;;;;;;22.33;20.00;;;;;18.74;71.94;101011.66;5078627;27;45436;-56
2022/06/04 03:43:26;;;;;;;;;25.00;21.33;;;;;18.69;72.14;101010.38;5078111;27;46054;-56
2022/06/04 03:45:52;;;;;;;;;24.00;22.00;;;;;18.70;71.90;101012.03;5078220;27;45422;-56
2022/06/04 03:48:18;;;;;;;;;27.00;23.67;;;;;18.67;72.57;100998.09;5078244;28;45355;-57
2022/06/04 03:50:43;;;;;;;;;21.67;19.67;;;;;18.60;72.19;100986.41;5078703;28;45332;-56
2022/06/04 03:53:08;;;;;;;;;21.00;21.00;;;;;18.63;72.61;100989.56;5059943;28;46781;-57
2022/06/04 03:55:34;;;;;;;;;29.33;22.33;;;;;18.56;72.81;101002.13;5077965;28;45416;-56
2022/06/04 03:57:59;;;;;;;;;26.33;23.67;;;;;18.55;72.94;101008.56;5078218;28;45315;-57
2022/06/04 04:00:31;;;;;;;;;21.33;16.67;;;;;18.52;73.07;101017.00;5078287;27;45426;-56
2022/06/04 04:03:15;;;;;;;;;20.67;18.67;;;;;18.44;72.78;101022.53;5077834;28;46211;-56
2022/06/04 04:05:46;;;;;;;;;22.00;19.33;;;;;18.48;72.97;101034.59;5078018;27;45239;-57
2022/06/04 04:08:11;;;;;;;;;20.67;19.67;;;;;18.45;72.79;101041.16;5078050;28;45226;-56
2022/06/04 04:10:39;;;;;;;;;24.00;23.00;;;;;18.42;73.19;101051.53;5077885;27;45286;-57
2022/06/04 04:13:06;;;;;;;;;26.33;22.00;;;;;18.37;73.45;101053.94;5077613;27;46407;-57
2022/06/04 04:15:32;;;;;;;;;19.00;19.00;;;;;18.36;73.50;101054.97;5077799;27;45441;-55
2022/06/04 04:17:57;;;;;;;;;23.33;20.00;;;;;18.34;72.79;101065.09;5078103;28;45426;-56
2022/06/04 04:20:26;;;;;;;;;18.67;17.33;;;;;18.36;73.61;101061.19;5078272;28;45365;-56
2022/06/04 04:22:54;;;;;;;;;23.00;21.67;;;;;18.39;73.56;101059.97;5077461;27;46174;-57
2022/06/04 04:25:21;;;;;;;;;22.00;19.00;;;;;18.39;73.40;101070.75;5077412;27;45404;-58
2022/06/04 04:27:47;;;;;;;;;21.00;18.00;;;;;18.44;73.05;101106.84;5077550;27;45406;-56
2022/06/04 04:30:15;;;;;;;;;25.00;21.67;;;;;18.51;73.10;101119.59;5093495;27;45394;-56
2022/06/04 04:32:41;;;;;;;;;24.00;20.67;;;;;18.46;72.94;101101.28;5077597;27;45314;-55
2022/06/04 04:35:11;;;;;;;;;18.00;15.67;;;;;18.61;72.36;101103.94;5077441;27;45343;-56
2022/06/04 04:37:37;;;;;;;;;22.67;19.33;;;;;18.65;72.50;101108.75;5077822;27;45438;-57
2022/06/04 04:40:03;;;;;;;;;22.67;18.00;;;;;18.64;71.92;101125.94;5077782;27;45616;-56
2022/06/04 04:42:29;;;;;;;;;21.00;19.67;;;;;18.63;72.17;101129.69;5077069;28;45450;-56
2022/06/04 04:44:54;;;;;;;;;21.33;19.00;;;;;18.63;72.51;101124.28;5077557;28;45387;-56
2022/06/04 04:47:19;;;;;;;;;18.00;17.00;;;;;18.64;72.07;101125.13;5077566;27;45339;-57
2022/06/04 04:49:45;;;;;;;;;24.33;19.33;;;;;18.58;72.75;101125.88;5077786;28;45340;-56
2022/06/04 04:52:10;;;;;;;;;18.33;18.33;;;;;18.58;72.73;101140.19;5077407;28;47160;-57
2022/06/04 04:54:35;;;;;;;;;21.33;19.67;;;;;18.57;72.92;101134.97;5077262;27;45400;-56
2022/06/04 04:57:01;;;;;;;;;22.33;20.33;;;;;18.57;72.78;101127.72;5077512;27;45291;-56
2022/06/04 04:59:27;;;;;;;;;22.67;20.67;;;;;18.54;73.13;101133.50;5077297;28;45468;-56
2022/06/04 05:01:52;;;;;;;;;20.33;19.00;;;;;18.55;73.13;101137.88;5076996;27;45285;-55
2022/06/04 05:04:18;;;;;;;;;23.67;20.00;;;;;18.59;72.88;101133.78;5077235;28;45264;-56
2022/06/04 05:06:43;;;;;;;;;26.67;20.67;;;;;18.63;72.32;101120.75;5076971;28;45411;-56
2022/06/04 05:09:10;;;;;;;;;19.00;17.33;;;;;18.54;72.58;101117.34;5077589;28;45294;-54
2022/06/04 05:11:36;;;;;;;;;20.00;18.00;;;;;18.62;72.42;101114.50;5077046;28;46132;-56
2022/06/04 05:14:01;;;;;;;;;19.33;18.33;;;;;18.62;72.75;101106.44;5076735;28;45413;-55
2022/06/04 05:16:30;;;;;;;;;19.00;18.67;;;;;18.66;71.79;101096.09;5077094;28;45382;-55
2022/06/04 05:18:56;;;;;;;;;25.33;20.33;;;;;18.66;72.74;101107.72;5076947;28;45343;-54
2022/06/04 05:21:24;;;;;;;;;22.67;21.00;;;;;18.65;72.72;101116.84;5076905;28;46107;-57
2022/06/04 05:23:53;;;;;;;;;23.33;21.67;;;;;18.68;72.71;101102.16;5076641;27;45246;-55
2022/06/04 05:26:18;;;;;;;;;22.33;19.33;;;;;18.71;72.46;101088.34;5076864;27;45237;-56
2022/06/04 05:28:45;;;;;;;;;17.67;16.33;;;;;18.74;72.44;101098.72;5076975;28;46083;-55
2022/06/04 05:31:11;;;;;;;;;22.00;20.00;;;;;18.77;72.49;101094.81;5076693;28;46150;-56
2022/06/04 05:33:36;;;;;;;;;20.00;16.33;;;;;18.82;72.44;101093.19;5076647;28;45382;-56
2022/06/04 05:36:02;;;;;;;;;22.33;21.00;;;;;18.87;72.48;101076.44;5075857;28;45216;-55
2022/06/04 05:38:28;;;;;;;;;16.33;14.67;;;;;18.88;71.67;101068.19;5080534;27;45369;-55
2022/06/04 05:41:09;;;;;;;;;13.33;12.67;;;;;18.92;71.95;101063.25;5080036;28;46155;-55
2022/06/04 05:43:35;;;;;;;;;21.33;18.67;;;;;18.96;71.87;101069.88;5080087;28;45330;-55
2022/06/04 05:46:03;;;;;;;;;28.00;20.00;;;;;18.99;72.14;101069.50;5079961;27;45318;-57
2022/06/04 05:48:29;;;;;;;;;16.33;16.33;;;;;19.01;71.60;101072.03;5080269;28;45378;-56
2022/06/04 05:50:55;;;;;;;;;19.00;17.33;;;;;19.09;71.78;101080.00;5079905;27;47250;-56
2022/06/04 05:53:22;;;;;;;;;21.00;17.33;;;;;19.18;71.40;101085.03;5079759;27;45219;-56
2022/06/04 05:55:48;;;;;;;;;19.00;15.67;;;;;19.28;71.34;101090.09;5080136;27;45334;-56
2022/06/04 05:58:14;;;;;;;;;18.67;15.33;;;;;19.34;70.87;101086.63;5080025;27;45383;-55
2022/06/04 06:00:40;;;;;;;;;19.67;17.33;;;;;19.49;70.53;101112.66;5079854;28;45334;-56
2022/06/04 06:03:05;;;;;;;;;19.67;16.33;;;;;19.56;70.25;101127.88;5079838;28;45379;-56
2022/06/04 06:05:31;;;;;;;;;15.67;15.67;;;;;19.59;70.10;101124.78;5080011;28;45412;-55
2022/06/04 06:07:57;;;;;;;;;17.33;15.33;;;;;19.59;70.06;101123.94;5080263;27;45368;-56
2022/06/04 06:10:22;;;;;;;;;18.00;18.00;;;;;19.57;70.08;101126.84;5079657;27;45392;-56
2022/06/04 06:12:48;;;;;;;;;16.33;15.67;;;;;19.59;69.94;101137.44;5079815;27;45223;-56
2022/06/04 06:15:13;;;;;;;;;20.33;17.00;;;;;19.60;70.00;101158.00;5079638;28;45442;-56
2022/06/04 06:17:40;;;;;;;;;20.00;17.33;;;;;19.59;70.46;101165.28;5079790;27;45286;-56
2022/06/04 06:20:06;;;;;;;;;19.33;13.33;;;;;19.59;70.23;101154.47;5078709;28;46099;-56
2022/06/04 06:22:32;;;;;;;;;24.00;17.67;;;;;19.59;70.33;101134.72;5079272;28;45295;-55
2022/06/04 06:24:58;;;;;;;;;15.33;15.33;;;;;19.54;70.41;101197.38;5079486;28;45307;-56
2022/06/04 06:27:24;;;;;;;;;17.00;17.00;;;;;19.52;70.21;101191.38;5079982;27;45414;-56
2022/06/04 06:29:49;;;;;;;;;17.67;17.00;;;;;19.50;70.05;101211.47;5079183;27;45430;-55
2022/06/04 06:32:15;;;;;;;;;18.00;18.00;;;;;19.46;70.63;101232.59;5079026;27;45314;-55
2022/06/04 06:34:40;;;;;;;;;16.00;16.00;;;;;19.47;71.02;101219.94;5079612;27;45286;-55
2022/06/04 06:37:06;;;;;;;;;21.33;18.67;;;;;19.45;70.86;101209.34;5079653;27;45475;-55
2022/06/04 06:39:31;;;;;;;;;20.67;16.67;;;;;19.45;70.60;101209.34;5078870;27;45709;-56
2022/06/04 06:41:57;;;;;;;;;19.00;16.33;;;;;19.44;70.68;101207.69;5079303;27;45319;-55
2022/06/04 06:44:23;;;;;;;;;19.67;19.33;;;;;19.43;70.90;101193.38;5078222;28;45482;-56
2022/06/04 06:46:48;;;;;;;;;23.00;23.00;;;;;19.38;71.25;101189.56;5079343;28;45377;-55
2022/06/04 06:49:26;;;;;;;;;26.33;21.67;;;;;19.43;70.92;101200.63;5078811;27;46933;-55
2022/06/04 06:51:58;;;;;;;;;19.33;17.33;;;;;19.42;71.06;101202.50;5061126;28;45501;-55
2022/06/04 06:54:26;;;;;;;;;21.00;19.33;;;;;19.45;70.84;101203.94;5079077;27;45313;-58
2022/06/04 06:56:53;;;;;;;;;29.33;22.33;;;;;19.50;70.62;101204.19;5079223;28;45348;-56
2022/06/04 06:59:24;;;;;;;;;24.00;22.33;;;;;19.53;70.78;101195.72;5078551;27;46202;-57
2022/06/04 07:01:51;;;;;;;;;23.33;19.67;;;;;19.51;70.71;101172.66;5078887;27;45240;-57
2022/06/04 07:04:17;;;;;;;;;20.00;19.00;;;;;19.60;70.49;101179.59;5078795;27;45351;-57
2022/06/04 07:06:48;;;;;;;;;22.67;21.67;;;;;19.56;70.23;101164.81;5079220;27;45416;-56
2022/06/04 07:09:17;;;;;;;;;24.00;21.33;;;;;19.61;70.55;101165.94;5078813;28;46351;-56
2022/06/04 07:11:43;;;;;;;;;23.33;23.00;;;;;19.66;70.24;101168.88;5078734;27;45392;-58
2022/06/04 07:14:09;;;;;;;;;22.00;20.00;;;;;19.73;69.96;101162.69;5079154;27;45484;-56
2022/06/04 07:16:35;;;;;;;;;26.00;20.33;;;;;19.71;69.75;101145.84;5079001;27;45254;-56
2022/06/04 07:19:01;;;;;;;;;22.33;20.33;;;;;19.80;69.72;101147.38;5078691;27;47275;-58
2022/06/04 07:21:28;;;;;;;;;30.33;24.00;;;;;19.85;69.68;101158.44;5078847;28;45321;-57
2022/06/04 07:23:53;;;;;;;;;22.00;20.67;;;;;19.91;69.58;101161.16;5078656;28;45254;-58
2022/06/04 07:26:20;;;;;;;;;32.00;28.33;;;;;19.98;69.51;101163.09;5079110;27;45342;-58
2022/06/04 07:28:46;;;;;;;;;25.67;24.33;;;;;20.03;69.49;101166.84;5078510;28;46265;-61
2022/06/04 07:31:13;;;;;;;;;24.33;22.33;;;;;20.14;69.33;101177.09;5078212;28;45565;-59
2022/06/04 07:33:42;;;;;;;;;28.33;24.00;;;;;20.24;68.59;101178.59;5078471;28;45425;-56
2022/06/04 07:36:14;;;;;;;;;28.33;24.00;;;;;20.38;68.21;101181.16;5078755;27;45408;-57
2022/06/04 07:38:39;;;;;;;;;26.67;24.67;;;;;20.66;68.00;101186.50;5078625;28;46264;-59
2022/06/04 07:41:04;;;;;;;;;24.67;24.67;;;;;21.98;65.17;101184.19;5078634;28;45388;-60
2022/06/04 07:43:30;;;;;;;;;26.00;24.00;;;;;22.96;61.92;101170.50;5077354;28;45336;-57
2022/06/04 07:45:55;;;;;;;;;21.67;21.00;;;;;23.39;60.46;101171.47;5077702;28;45453;-57
2022/06/04 07:48:20;;;;;;;;;24.00;21.33;;;;;24.30;58.37;101185.44;5077978;27;46948;-57
2022/06/04 07:50:46;;;;;;;;;25.25;22.00;;;;;26.56;55.88;101188.22;5077738;28;45409;-57
2022/06/04 07:53:11;;;;;;;;;26.50;23.25;;;;;28.39;50.95;101181.44;5078247;27;45762;-56
2022/06/04 07:55:40;;;;;;;;;24.00;20.50;;;;;28.23;48.47;101172.16;5078365;28;45449;-59
2022/06/04 07:58:05;;;;;;;;;24.75;23.25;;;;;29.61;45.17;101179.13;5078222;28;46148;-60
2022/06/04 08:00:31;;;;;;;;;21.75;19.75;;;;;31.27;42.06;101171.03;5077225;28;45474;-60
2022/06/04 08:02:57;;;;;;;;;17.00;16.00;;;;;33.77;39.26;101179.00;5078330;27;45523;-57
2022/06/04 08:05:22;;;;;;;;;15.75;15.75;;;;;36.08;34.30;101162.63;5077973;28;45434;-56
2022/06/04 08:07:47;;;;;;;;;17.75;17.25;;;;;38.06;31.64;101178.38;5077735;28;47057;-59
2022/06/04 08:10:13;;;;;;;;;16.25;13.75;;;;;39.77;28.88;101169.56;5078073;28;45457;-59
2022/06/04 08:12:50;;;;;;;;;16.40;14.80;;;;;41.28;26.88;101159.50;5077926;27;45303;-61
2022/06/04 08:15:16;;;;;;;;;18.80;16.20;;;;;42.61;25.38;101159.94;5078083;28;45600;-59
2022/06/04 08:17:41;;;;;;;;;20.75;17.00;;;;;43.80;23.18;101148.00;5077410;28;45987;-59
2022/06/04 08:20:07;;;;;;;;;13.00;12.00;;;;;44.70;24.03;101148.06;5077710;27;45511;-58
2022/06/04 08:22:33;;;;;;;;;19.80;17.20;;;;;44.97;22.43;101151.84;5077542;27;45242;-59
2022/06/04 08:24:58;;;;;;;;;14.50;14.50;;;;;45.50;22.21;101157.66;5077876;28;45315;-60
2022/06/04 08:27:24;;;;;;;;;20.25;18.25;;;;;45.47;20.93;101161.22;5077481;28;46251;-60
2022/06/04 08:29:50;;;;;;;;;17.00;15.80;;;;;45.78;20.65;101168.56;5077434;27;45245;-57
2022/06/04 08:32:15;;;;;;;;;17.00;15.00;;;;;46.47;20.33;101174.03;5077661;27;45395;-59
2022/06/04 08:34:41;;;;;;;;;15.25;11.75;;;;;47.12;18.92;101153.97;5077776;28;45375;-60
2022/06/04 08:37:06;;;;;;;;;16.00;14.50;;;;;47.79;17.92;101167.09;5077437;28;45276;-60
2022/06/04 08:39:32;;;;;;;;;16.00;14.00;;;;;48.39;17.70;101163.03;5077591;28;45282;-59
2022/06/04 08:42:27;;;;;;;;;10.50;10.50;;;;;48.82;17.43;101160.44;5077614;27;45260;-60
2022/06/04 08:44:57;;;;;;;;;12.40;10.80;;;;;49.43;17.01;101161.34;5077460;28;45657;-61
2022/06/04 08:47:52;;;;;;;;;12.00;11.20;;;;;49.85;18.12;101159.75;5077089;28;46669;-61
2022/06/04 08:50:21;;;;;;;;;15.20;13.00;;;;;50.12;15.22;101172.22;4975217;28;45433;-57
2022/06/04 08:52:49;;;;;;;;;13.60;13.60;;;;;50.30;15.49;101169.38;4975084;28;45455;-57
2022/06/04 08:58:46;;;;;;;;;18.20;16.20;;;;;50.55;15.79;101177.78;4975176;28;45459;-57
2022/06/04 09:01:25;;;;;;;;;14.40;13.20;;;;;50.64;16.75;101192.31;4975011;28;45372;-60
2022/06/04 09:04:38;;;;;;;;;14.00;13.40;;;;;50.83;15.91;101188.19;4974986;28;45454;-57
2022/06/04 09:07:15;;;;;;;;;13.80;13.80;;;;;50.95;14.86;101180.44;4898333;29;45304;-58
2022/06/04 09:09:53;;;;;;;;;14.60;14.60;;;;;51.04;15.44;101190.09;4897958;29;45482;-60
2022/06/04 09:12:27;;;;;;;;;17.60;15.40;;;;;51.20;14.97;101191.59;4899820;29;45289;-60
2022/06/04 09:15:02;;;;;;;;;14.80;13.80;;;;;51.23;14.85;101185.13;4901409;29;45397;-60
2022/06/04 09:17:40;;;;;;;;;12.40;11.80;;;;;51.26;15.46;101190.00;4901374;29;45563;-58
2022/06/04 09:20:19;;;;;;;;;13.60;13.40;;;;;51.35;14.78;101181.81;4901503;29;46051;-58
2022/06/04 09:22:47;;;;;;;;;14.60;13.60;;;;;51.51;14.26;101184.91;4901297;29;45573;-59
2022/06/04 09:25:20;;;;;;;;;14.40;14.40;;;;;51.65;14.48;101190.47;4901576;29;45599;-59
2022/06/04 09:28:13;;;;;;;;;15.40;13.00;;;;;51.74;13.88;101187.16;4991309;28;45466;-62
2022/06/04 09:30:55;;;;;;;;;14.80;13.20;;;;;51.91;13.58;101190.28;4997756;28;46385;-59
2022/06/04 09:33:40;;;;;;;;;15.00;11.60;;;;;51.97;14.75;101195.09;4996824;28;45411;-60
2022/06/04 09:36:11;;;;;;;;;15.20;13.00;;;;;52.04;13.93;101189.31;4997750;28;45485;-60
2022/06/04 09:38:37;;;;;;;;;9.80;9.80;;;;;52.17;13.96;101191.59;4997876;28;45424;-58
2022/06/04 09:41:18;;;;;;;;;13.00;12.75;;;;;52.16;14.24;101179.44;4997865;28;45424;-58
2022/06/04 09:43:58;;;;;;;;;11.20;11.20;;;;;52.11;13.24;101192.06;5042644;28;45392;-59
2022/06/04 09:46:25;;;;;;;;;12.20;12.20;;;;;51.89;13.33;101187.88;5059938;28;45445;-58
2022/06/04 09:48:52;;;;;;;;;11.20;10.60;;;;;51.98;14.25;101193.84;5059779;28;45408;-59
2022/06/04 09:51:22;;;;;;;;;12.00;12.00;;;;;52.20;13.35;101187.94;5059629;28;45485;-59
2022/06/04 09:53:54;;;;;;;;;9.20;9.20;;;;;52.22;13.65;101186.31;5059278;28;45417;-57
2022/06/04 09:56:40;;;;;;;;;11.80;11.60;;;;;52.29;14.01;101183.38;5059922;28;45532;-59
2022/06/04 09:59:14;;;;;;;;;12.60;12.40;;;;;52.04;14.57;101183.63;5059959;28;45410;-58
2022/06/04 10:01:39;;;;;;;;;7.80;7.80;;;;;51.83;13.68;101186.66;5059186;28;47286;-58
2022/06/04 10:04:14;;;;;;;;;10.00;9.00;;;;;51.61;14.17;101183.22;5058315;28;45341;-58
2022/06/04 10:06:41;;;;;;;;;11.20;9.20;;;;;51.54;13.54;101189.78;5059743;28;45311;-59
2022/06/04 10:12:16;;;;;;;;;12.60;11.60;;;;;51.58;13.62;101182.06;5059333;28;45803;-60
2022/06/04 10:14:57;;;;;;;;;10.60;10.60;;;;;51.36;14.10;101183.41;5059186;28;45238;-57
2022/06/04 10:17:35;;;;;;;;;10.80;10.80;;;;;51.04;14.46;101186.47;5070617;27;45326;-58
2022/06/04 10:20:00;;;;;;;;;12.20;11.60;;;;;50.94;14.60;101178.81;5079833;27;45351;-60
2022/06/04 10:22:26;;;;;;;;;9.75;9.75;;;;;50.79;14.02;101175.25;5078949;27;45355;-59
2022/06/04 10:24:54;;;;;;;;;13.00;12.00;;;;;50.87;14.51;101177.66;5079541;28;45269;-59
2022/06/04 10:27:35;;;;;;;;;14.00;11.20;;;;;50.55;14.91;101166.47;5079711;27;45489;-61
2022/06/04 10:30:00;;;;;;;;;11.80;10.40;;;;;50.29;14.50;101166.97;5079804;27;45453;-59
2022/06/04 10:32:52;;;;;;;;;12.00;11.00;;;;;49.83;14.89;101167.84;5060435;28;45506;-59
2022/06/04 10:35:33;;;;;;;;;10.00;9.20;;;;;49.34;14.73;101167.41;5079207;27;45241;-60
2022/06/04 10:38:10;;;;;;;;;9.60;9.60;;;;;48.78;15.48;101160.41;5079435;27;45324;-58
2022/06/04 10:40:54;;;;;;;;;13.00;11.20;;;;;48.44;15.23;101162.69;5079812;28;45316;-59
2022/06/04 10:44:07;;;;;;;;;11.40;11.40;;;;;47.48;16.49;101162.75;5079126;27;45973;-57
2022/06/04 10:46:41;;;;;;;;;10.60;10.40;;;;;45.89;16.84;101166.75;4976763;28;45699;-59
2022/06/04 10:49:24;;;;;;;;;11.60;11.60;;;;;43.92;19.23;101169.53;4976962;28;45392;-57
2022/06/04 10:52:14;;;;;;;;;13.60;10.60;;;;;42.44;20.53;101166.63;4976955;28;45444;-59
2022/06/04 10:54:47;;;;;;;;;10.80;9.60;;;;;41.14;21.64;101157.03;4976337;28;47532;-59
2022/06/04 10:57:31;;;;;;;;;11.40;10.20;;;;;39.94;22.74;101160.31;4976182;28;45467;-61
2022/06/04 11:00:04;;;;;;;;;11.40;11.00;;;;;38.62;24.07;101157.25;4973996;28;45407;-59
2022/06/04 11:02:53;;;;;;;;;10.20;10.20;;;;;37.37;25.28;101162.97;4976783;28;45409;-61
2022/06/04 11:05:25;;;;;;;;;10.80;9.40;;;;;36.33;26.61;101151.00;4976736;28;46186;-61
2022/06/04 11:08:04;;;;;;;;;11.00;11.00;;;;;35.39;27.27;101135.63;4976762;28;45342;-56
2022/06/04 11:10:37;;;;;;;;;8.80;8.80;;;;;34.86;28.61;101155.28;4976980;28;45524;-61
2022/06/04 11:13:11;;;;;;;;;11.00;11.00;;;;;34.30;30.02;101147.75;4976935;28;45500;-57
2022/06/04 11:15:41;;;;;;;;;9.80;9.80;;;;;33.85;30.81;101146.38;4976478;28;47416;-59
2022/06/04 11:18:18;;;;;;;;;9.60;9.60;;;;;33.53;30.95;101147.78;4976483;28;45543;-58
2022/06/04 11:20:49;;;;;;;;;8.20;8.20;;;;;33.24;30.51;101150.50;4976856;28;45501;-57
2022/06/04 11:23:25;;;;;;;;;9.60;8.00;;;;;32.93;30.65;101145.25;5054712;28;45304;-57
2022/06/04 11:25:56;;;;;;;;;10.60;8.60;;;;;32.74;32.27;101136.81;5058177;28;45874;-59
2022/06/04 11:28:26;;;;;;;;;8.00;8.00;;;;;32.65;31.94;101133.00;5058235;28;45302;-58
2022/06/04 11:31:13;;;;;;;;;8.60;8.60;;;;;32.51;31.13;101137.50;5058328;28;45418;-60
2022/06/04 11:34:12;;;;;;;;;10.40;9.00;;;;;32.20;32.44;101140.38;5058059;28;45404;-59
2022/06/04 11:36:44;;;;;;;;;9.80;8.40;;;;;32.25;32.14;101128.53;5058362;28;46032;-59
2022/06/04 11:39:28;;;;;;;;;7.60;5.40;;;;;32.29;32.19;101126.84;5058159;28;45379;-60